createdAt,value
2022-10-10T00:01:39.223Z,9.17
2022-10-10T00:04:09.165Z,8.57
2022-10-10T00:06:37.642Z,6.93
2022-10-10T00:09:07.054Z,11.13
2022-10-10T00:11:36.432Z,8.43
2022-10-10T00:14:05.676Z,9.60
2022-10-10T00:16:34.143Z,12.50
2022-10-10T00:19:02.626Z,8.00
2022-10-10T00:21:32.590Z,8.10
2022-10-10T00:24:01.796Z,8.33
2022-10-10T00:26:30.356Z,11.00
2022-10-10T00:28:58.877Z,10.80
2022-10-10T00:31:27.424Z,12.03
2022-10-10T00:33:55.892Z,11.40
2022-10-10T00:36:24.397Z,6.97
2022-10-10T00:38:54.303Z,10.97
2022-10-10T00:41:22.980Z,8.40
2022-10-10T00:44:06.631Z,8.87
2022-10-10T00:46:35.894Z,8.70
2022-10-10T00:49:06.249Z,7.63
2022-10-10T00:51:35.374Z,9.83
2022-10-10T00:54:10.038Z,9.20
2022-10-10T00:56:42.513Z,9.23
2022-10-10T00:59:12.901Z,8.60
2022-10-10T01:01:42.719Z,11.97
2022-10-10T01:04:33.311Z,10.63
2022-10-10T01:07:03.221Z,16.90
2022-10-10T01:09:33.974Z,9.00
2022-10-10T01:12:12.312Z,9.80
2022-10-10T01:14:47.407Z,10.10
2022-10-10T01:17:24.493Z,9.13
2022-10-10T01:20:24.947Z,13.23
2022-10-10T01:23:14.355Z,11.03
2022-10-10T01:26:00.101Z,11.13
2022-10-10T01:28:40.423Z,11.60
2022-10-10T01:31:11.029Z,19.07
2022-10-10T01:33:46.331Z,12.33
2022-10-10T01:36:23.409Z,10.03
2022-10-10T01:38:58.705Z,9.93
2022-10-10T01:41:32.501Z,10.30
2022-10-10T01:44:02.444Z,9.43
2022-10-10T01:46:30.961Z,10.93
2022-10-10T01:49:01.059Z,10.03
2022-10-10T01:51:45.193Z,16.10
2022-10-10T01:54:26.781Z,11.03
2022-10-10T01:57:03.389Z,10.17
2022-10-10T01:59:46.300Z,12.23
2022-10-10T02:02:21.951Z,11.67
2022-10-10T02:04:54.298Z,12.20
2022-10-10T02:07:32.952Z,14.53
2022-10-10T02:10:05.515Z,10.47
2022-10-10T02:12:36.210Z,10.27
2022-10-10T02:15:12.022Z,14.67
2022-10-10T02:17:43.451Z,9.77
2022-10-10T02:20:15.133Z,11.83
2022-10-10T02:22:46.089Z,9.50
2022-10-10T02:25:15.646Z,10.73
2022-10-10T02:27:48.441Z,10.67
2022-10-10T02:30:20.192Z,13.27
2022-10-10T02:32:51.058Z,17.27
2022-10-10T02:35:25.238Z,13.33
2022-10-10T02:37:55.752Z,13.03
2022-10-10T02:40:27.337Z,15.93
2022-10-10T02:42:58.318Z,16.43
2022-10-10T02:45:29.356Z,14.23
2022-10-10T02:47:58.195Z,12.57
2022-10-10T02:50:27.768Z,28.13
2022-10-10T02:52:56.351Z,13.10
2022-10-10T02:55:25.501Z,15.17
2022-10-10T02:57:53.951Z,12.60
2022-10-10T03:00:22.686Z,10.27
2022-10-10T03:02:52.897Z,16.77
2022-10-10T03:05:21.624Z,12.67
2022-10-10T03:07:50.117Z,14.37
2022-10-10T03:10:18.742Z,13.30
2022-10-10T03:12:47.275Z,10.70
2022-10-10T03:15:16.511Z,11.23
2022-10-10T03:17:45.359Z,11.43
2022-10-10T03:20:15.393Z,14.67
2022-10-10T03:22:43.778Z,14.57
2022-10-10T03:25:12.513Z,12.33
2022-10-10T03:27:41.750Z,17.60
2022-10-10T03:30:11.208Z,13.90
2022-10-10T03:32:39.566Z,11.80
2022-10-10T03:35:08.838Z,15.17
2022-10-10T03:37:38.681Z,12.67
2022-10-10T03:40:08.018Z,12.50
2022-10-10T03:42:36.577Z,15.20
2022-10-10T03:45:05.715Z,15.53
2022-10-10T03:47:34.297Z,15.37
2022-10-10T03:50:02.742Z,14.00
2022-10-10T03:52:31.189Z,15.37
2022-10-10T03:55:01.053Z,11.97
2022-10-10T03:57:29.624Z,15.13
2022-10-10T03:59:58.201Z,11.60
2022-10-10T04:02:26.963Z,12.23
2022-10-10T04:04:55.460Z,25.63
2022-10-10T04:07:23.892Z,14.30
2022-10-10T04:09:52.257Z,13.70
2022-10-10T04:12:22.289Z,16.53
2022-10-10T04:14:50.874Z,13.30
2022-10-10T04:17:19.684Z,12.93
2022-10-10T04:19:48.148Z,16.13
2022-10-10T04:22:16.845Z,13.77
2022-10-10T04:24:45.512Z,14.90
2022-10-10T04:27:14.066Z,18.77
2022-10-10T04:29:43.928Z,12.07
2022-10-10T04:32:12.328Z,15.90
2022-10-10T04:34:40.758Z,14.83
2022-10-10T04:37:09.205Z,18.67
2022-10-10T04:39:37.644Z,16.67
2022-10-10T04:42:06.500Z,15.73
2022-10-10T04:44:34.918Z,13.30
2022-10-10T04:47:05.135Z,13.47
2022-10-10T04:49:33.868Z,17.03
2022-10-10T04:52:02.555Z,12.93
2022-10-10T04:54:31.152Z,16.73
2022-10-10T04:56:59.727Z,18.20
2022-10-10T04:59:28.281Z,25.17
2022-10-10T05:02:01.380Z,25.57
2022-10-10T05:04:31.841Z,23.47
2022-10-10T05:07:00.432Z,19.30
2022-10-10T05:09:28.937Z,25.83
2022-10-10T05:11:57.401Z,27.40
2022-10-10T05:14:25.909Z,22.57
2022-10-10T05:16:54.481Z,28.53
2022-10-10T05:19:23.030Z,24.07
2022-10-10T05:21:52.985Z,24.33
2022-10-10T05:24:21.418Z,19.53
2022-10-10T05:26:49.980Z,17.70
2022-10-10T05:29:18.496Z,20.57
2022-10-10T05:31:46.881Z,18.97
2022-10-10T05:34:16.236Z,14.07
2022-10-10T05:36:44.874Z,15.90
2022-10-10T05:39:14.862Z,18.87
2022-10-10T05:41:43.436Z,13.80
2022-10-10T05:44:11.956Z,15.00
2022-10-10T05:46:40.606Z,16.37
2022-10-10T05:49:09.311Z,17.33
2022-10-10T05:51:37.814Z,16.07
2022-10-10T05:54:06.678Z,21.80
2022-10-10T05:56:37.128Z,19.57
2022-10-10T05:59:06.123Z,17.10
2022-10-10T06:01:34.635Z,16.00
2022-10-10T06:04:03.414Z,24.57
2022-10-10T06:06:32.192Z,20.10
2022-10-10T06:09:00.884Z,17.50
2022-10-10T06:11:31.924Z,24.60
2022-10-10T06:14:01.748Z,24.97
2022-10-10T06:16:30.423Z,20.30
2022-10-10T06:18:59.131Z,22.50
2022-10-10T06:21:28.119Z,20.73
2022-10-10T06:23:56.612Z,27.63
2022-10-10T06:26:25.311Z,18.63
2022-10-10T06:28:54.012Z,18.70
2022-10-10T06:31:24.011Z,22.37
2022-10-10T06:33:53.522Z,21.43
2022-10-10T06:36:22.002Z,22.70
2022-10-10T06:38:50.702Z,21.20
2022-10-10T06:41:19.237Z,16.30
2022-10-10T06:43:49.305Z,18.43
2022-10-10T06:46:18.004Z,16.23
2022-10-10T06:48:49.555Z,15.90
2022-10-10T06:51:19.386Z,20.60
2022-10-10T06:53:48.171Z,15.70
2022-10-10T06:56:27.155Z,17.17
2022-10-10T06:58:56.604Z,17.20
2022-10-10T07:01:26.840Z,18.07
2022-10-10T07:03:56.845Z,19.27
2022-10-10T07:06:25.870Z,16.53
2022-10-10T07:08:54.427Z,22.67
2022-10-10T07:11:22.925Z,17.10
2022-10-10T07:13:53.958Z,18.43
2022-10-10T07:16:23.370Z,18.00
2022-10-10T07:18:51.980Z,19.07
2022-10-10T07:21:21.888Z,17.83
2022-10-10T07:23:50.315Z,15.07
2022-10-10T07:26:22.373Z,18.00
2022-10-10T07:28:51.069Z,18.80
2022-10-10T07:31:19.862Z,17.23
2022-10-10T07:33:50.701Z,15.47
2022-10-10T07:36:20.165Z,13.27
2022-10-10T07:38:53.382Z,14.60
2022-10-10T07:41:22.561Z,15.87
2022-10-10T07:43:56.177Z,16.83
2022-10-10T07:46:25.171Z,15.23
2022-10-10T07:48:53.720Z,17.40
2022-10-10T07:51:22.303Z,18.80
2022-10-10T07:53:53.295Z,15.97
2022-10-10T07:56:21.977Z,13.10
2022-10-10T07:58:50.457Z,15.63
2022-10-10T08:01:19.133Z,15.87
2022-10-10T08:03:47.695Z,17.37
2022-10-10T08:06:18.698Z,13.23
2022-10-10T08:08:51.590Z,13.20
2022-10-10T08:11:23.192Z,16.03
2022-10-10T08:13:52.446Z,13.00
2022-10-10T08:16:21.195Z,14.53
2022-10-10T08:18:50.174Z,15.70
2022-10-10T08:21:19.032Z,14.17
2022-10-10T08:23:47.950Z,12.47
2022-10-10T08:26:18.239Z,10.97
2022-10-10T08:28:48.996Z,11.87
2022-10-10T08:31:20.079Z,11.20
2022-10-10T08:33:50.721Z,11.30
2022-10-10T08:36:21.560Z,10.53
2022-10-10T08:38:50.622Z,15.00
2022-10-10T08:41:25.893Z,15.13
2022-10-10T08:43:59.267Z,12.83
2022-10-10T08:46:36.899Z,12.07
2022-10-10T08:49:18.164Z,14.93
2022-10-10T08:51:54.060Z,9.23
2022-10-10T08:54:27.057Z,9.53
2022-10-10T08:57:00.172Z,13.77
2022-10-10T08:59:35.541Z,11.73
2022-10-10T09:02:54.698Z,12.33
2022-10-10T09:05:47.787Z,11.07
2022-10-10T09:08:40.795Z,9.97
2022-10-10T09:11:21.807Z,10.30
2022-10-10T09:13:58.575Z,11.17
2022-10-10T09:16:41.792Z,9.50
2022-10-10T09:19:24.752Z,10.80
2022-10-10T09:21:58.771Z,9.73
2022-10-10T09:24:32.659Z,9.83
2022-10-10T09:27:05.319Z,8.17
2022-10-10T09:29:41.078Z,9.83
2022-10-10T09:32:15.692Z,8.00
2022-10-10T09:34:49.323Z,11.20
2022-10-10T09:37:35.632Z,8.00
2022-10-10T09:40:19.227Z,11.27
2022-10-10T09:42:47.709Z,12.37
2022-10-10T09:45:20.129Z,10.50
2022-10-10T09:47:54.680Z,11.27
2022-10-10T09:50:27.352Z,9.30
2022-10-10T09:53:00.007Z,9.23
2022-10-10T09:55:32.340Z,9.20
2022-10-10T09:58:12.210Z,8.90
2022-10-10T10:00:40.835Z,8.37
2022-10-10T10:03:15.748Z,11.00
2022-10-10T10:05:47.648Z,7.37
2022-10-10T10:08:26.300Z,9.13
2022-10-10T10:10:58.591Z,5.97
2022-10-10T10:13:31.809Z,10.17
2022-10-10T10:16:03.791Z,10.50
2022-10-10T10:18:40.710Z,8.70
2022-10-10T10:21:19.024Z,8.77
2022-10-10T10:23:54.497Z,7.43
2022-10-10T10:26:27.607Z,8.70
2022-10-10T10:28:58.220Z,7.33
2022-10-10T10:31:44.536Z,10.63
2022-10-10T10:34:37.407Z,7.30
2022-10-10T10:37:17.928Z,8.00
2022-10-10T10:39:57.513Z,9.63
2022-10-10T10:42:45.576Z,8.80
2022-10-10T10:45:18.377Z,6.83
2022-10-10T10:47:56.728Z,6.50
2022-10-10T10:50:39.114Z,7.83
2022-10-10T10:53:15.813Z,7.53
2022-10-10T10:55:51.515Z,8.27
2022-10-10T11:01:55.946Z,9.23
2022-10-10T11:05:23.758Z,7.20
2022-10-10T11:07:51.299Z,6.33
2022-10-10T11:10:25.961Z,5.73
2022-10-10T11:13:04.752Z,7.10
2022-10-10T11:16:05.473Z,7.10
2022-10-10T11:18:34.903Z,7.30
2022-10-10T11:21:08.654Z,6.60
2022-10-10T11:23:43.850Z,7.57
2022-10-10T11:26:21.499Z,6.13
2022-10-10T11:28:54.466Z,6.53
2022-10-10T11:31:26.505Z,4.50
2022-10-10T11:33:59.378Z,8.00
2022-10-10T11:36:31.573Z,10.07
2022-10-10T11:39:06.596Z,7.40
2022-10-10T11:41:40.396Z,6.70
2022-10-10T11:44:15.235Z,6.80
2022-10-10T11:46:47.152Z,6.90
2022-10-10T11:49:23.679Z,6.20
2022-10-10T11:52:33.015Z,7.97
2022-10-10T11:55:11.805Z,5.67
2022-10-10T11:57:44.855Z,7.60
2022-10-10T12:00:16.552Z,5.73
2022-10-10T12:02:47.726Z,6.10
2022-10-10T12:05:24.700Z,7.07
2022-10-10T12:08:17.594Z,6.27
2022-10-10T12:10:53.825Z,5.10
2022-10-10T12:13:30.114Z,6.53
2022-10-10T12:16:04.029Z,6.90
2022-10-10T12:18:40.838Z,5.70
2022-10-10T12:21:11.909Z,7.53
2022-10-10T12:23:41.451Z,4.73
2022-10-10T12:26:15.734Z,7.50
2022-10-10T12:29:00.066Z,6.77
2022-10-10T12:31:36.021Z,7.07
2022-10-10T12:34:17.101Z,6.20
2022-10-10T12:37:12.302Z,7.03
2022-10-10T12:40:01.617Z,6.07
2022-10-10T12:42:34.223Z,5.50
2022-10-10T12:45:02.861Z,5.60
2022-10-10T12:48:04.503Z,6.70
2022-10-10T12:50:37.752Z,4.90
2022-10-10T12:53:17.297Z,5.30
2022-10-10T12:55:48.343Z,3.73
2022-10-10T12:58:27.384Z,6.67
2022-10-10T13:00:58.407Z,4.20
2022-10-10T13:03:32.442Z,16.00
2022-10-10T13:06:06.928Z,6.53
2022-10-10T13:08:38.930Z,7.23
2022-10-10T13:11:10.983Z,5.63
2022-10-10T13:13:42.170Z,5.10
2022-10-10T13:16:14.723Z,5.60
2022-10-10T13:18:45.858Z,5.47
2022-10-10T13:21:19.686Z,12.60
2022-10-10T13:26:40.555Z,9.90
2022-10-10T13:29:21.367Z,7.90
2022-10-10T13:31:50.419Z,7.13
2022-10-10T13:34:26.469Z,6.30
2022-10-10T13:36:58.349Z,6.47
2022-10-10T13:39:28.950Z,4.63
2022-10-10T13:41:58.440Z,4.77
2022-10-10T13:44:34.146Z,5.30
2022-10-10T13:47:35.587Z,6.57
2022-10-10T13:50:04.249Z,5.70
2022-10-10T13:52:32.960Z,10.83
2022-10-10T13:55:16.739Z,7.40
2022-10-10T13:57:45.275Z,7.40
2022-10-10T14:00:20.251Z,5.83
2022-10-10T14:02:50.096Z,6.83
2022-10-10T14:05:26.253Z,5.57
2022-10-10T14:07:55.914Z,8.13
2022-10-10T14:10:26.644Z,4.33
2022-10-10T14:12:57.769Z,4.57
2022-10-10T14:15:39.162Z,7.83
2022-10-10T14:18:17.628Z,6.50
2022-10-10T14:20:46.534Z,5.10
2022-10-10T14:23:15.383Z,5.43
2022-10-10T14:25:45.376Z,4.83
2022-10-10T14:28:18.122Z,12.13
2022-10-10T14:30:48.304Z,4.67
2022-10-10T14:33:19.583Z,8.03
2022-10-10T14:35:49.878Z,7.60
2022-10-10T14:38:18.358Z,7.97
2022-10-10T14:40:49.621Z,5.97
2022-10-10T14:43:20.879Z,4.20
2022-10-10T14:45:53.288Z,5.67
2022-10-10T14:48:22.029Z,15.17
2022-10-10T14:50:51.500Z,6.07
2022-10-10T14:53:20.185Z,4.33
2022-10-10T14:55:52.527Z,3.93
2022-10-10T14:58:24.378Z,7.13
2022-10-10T15:00:54.642Z,4.07
2022-10-10T15:03:23.676Z,3.73
2022-10-10T15:05:52.277Z,5.17
2022-10-10T15:08:21.042Z,7.53
2022-10-10T15:10:49.884Z,8.07
2022-10-10T15:13:18.567Z,6.43
2022-10-10T15:15:49.003Z,5.10
2022-10-10T15:18:49.071Z,7.57
2022-10-10T15:21:11.564Z,9.60
2022-10-10T15:23:40.162Z,7.70
2022-10-10T15:26:09.284Z,5.23
2022-10-10T15:28:37.845Z,6.17
2022-10-10T15:31:07.179Z,6.63
2022-10-10T15:33:37.019Z,8.47
2022-10-10T15:36:09.968Z,7.20
2022-10-10T15:38:39.754Z,9.37
2022-10-10T15:41:10.377Z,10.03
2022-10-10T15:43:45.824Z,9.20
2022-10-10T15:46:14.692Z,5.10
2022-10-10T15:48:44.563Z,5.07
2022-10-10T15:51:13.282Z,5.23
2022-10-10T15:53:42.027Z,8.30
2022-10-10T15:56:13.532Z,13.93
2022-10-10T15:58:42.289Z,6.77
2022-10-10T16:01:13.376Z,6.27
2022-10-10T16:03:42.028Z,7.60
2022-10-10T16:06:12.290Z,7.47
2022-10-10T16:08:41.242Z,3.90
2022-10-10T16:11:11.547Z,5.53
2022-10-10T16:13:40.967Z,6.07
2022-10-10T16:16:12.244Z,4.27
2022-10-10T16:18:42.311Z,10.50
2022-10-10T16:21:16.364Z,6.23
2022-10-10T16:23:45.462Z,17.87
2022-10-10T16:26:15.556Z,7.10
2022-10-10T16:28:44.733Z,6.43
2022-10-10T16:31:17.194Z,7.17
2022-10-10T16:33:47.318Z,5.53
2022-10-10T16:36:20.330Z,7.53
2022-10-10T16:38:50.224Z,6.27
2022-10-10T16:41:46.042Z,8.33
2022-10-10T16:44:09.018Z,8.50
2022-10-10T16:46:37.641Z,4.40
2022-10-10T16:49:06.916Z,6.10
2022-10-10T16:51:36.869Z,5.73
2022-10-10T16:54:06.275Z,6.17
2022-10-10T16:56:35.857Z,7.70
2022-10-10T16:59:05.314Z,5.77
2022-10-10T17:01:33.830Z,10.30
2022-10-10T17:04:03.637Z,4.33
2022-10-10T17:06:37.711Z,5.77
2022-10-10T17:09:10.244Z,7.50
2022-10-10T17:11:39.551Z,6.83
2022-10-10T17:14:11.083Z,7.53
2022-10-10T17:19:28.602Z,7.57
2022-10-10T17:22:00.872Z,4.33
2022-10-10T17:24:31.305Z,9.00
2022-10-10T17:27:00.008Z,4.50
2022-10-10T17:29:28.992Z,6.00
2022-10-10T17:31:58.963Z,6.47
2022-10-10T17:34:29.129Z,7.50
2022-10-10T17:36:57.712Z,7.40
2022-10-10T17:39:26.309Z,9.23
2022-10-10T17:41:56.373Z,8.67
2022-10-10T17:44:25.034Z,5.17
2022-10-10T17:46:54.360Z,7.10
2022-10-10T17:49:22.957Z,8.47
2022-10-10T17:51:51.602Z,9.80
2022-10-10T17:54:20.320Z,7.37
2022-10-10T17:56:49.016Z,7.20
2022-10-10T17:59:21.669Z,9.33
2022-10-10T18:01:50.239Z,7.20
2022-10-10T18:04:18.745Z,9.10
2022-10-10T18:06:47.211Z,8.67
2022-10-10T18:09:16.245Z,8.80
2022-10-10T18:11:44.997Z,9.77
2022-10-10T18:14:13.925Z,8.00
2022-10-10T18:16:45.073Z,10.13
2022-10-10T18:19:13.496Z,7.40
2022-10-10T18:21:42.020Z,7.93
2022-10-10T18:24:10.835Z,8.70
2022-10-10T18:26:39.400Z,7.73
2022-10-10T18:29:07.899Z,7.37
2022-10-10T18:31:38.421Z,7.97
2022-10-10T18:34:09.171Z,8.00
2022-10-10T18:36:39.217Z,6.47
2022-10-10T18:39:10.223Z,7.73
2022-10-10T18:41:39.262Z,7.50
2022-10-10T18:44:10.056Z,7.97
2022-10-10T18:46:39.193Z,7.97
2022-10-10T18:49:10.309Z,6.83
2022-10-10T18:51:41.671Z,6.13
2022-10-10T18:54:13.829Z,7.83
2022-10-10T18:56:46.022Z,7.93
2022-10-10T18:59:16.859Z,6.43
2022-10-10T19:01:46.771Z,9.97
2022-10-10T19:04:17.835Z,8.43
2022-10-10T19:06:46.241Z,6.67
2022-10-10T19:09:16.230Z,6.93
2022-10-10T19:11:46.750Z,9.33
2022-10-10T19:14:17.461Z,6.73
2022-10-10T19:16:47.796Z,5.80
2022-10-10T19:19:19.684Z,7.60
2022-10-10T19:21:49.322Z,11.13
2022-10-10T19:24:21.371Z,6.37
2022-10-10T19:26:56.950Z,6.50
2022-10-10T19:29:27.517Z,5.53
2022-10-10T19:31:56.354Z,7.93
2022-10-10T19:34:26.364Z,9.57
2022-10-10T19:36:54.957Z,6.63
2022-10-10T19:39:23.671Z,7.00
2022-10-10T19:41:52.237Z,10.80
2022-10-10T19:44:20.722Z,9.03
2022-10-10T19:46:49.239Z,9.70
2022-10-10T19:49:17.726Z,9.70
2022-10-10T19:51:47.744Z,6.67
2022-10-10T19:54:16.217Z,6.73
2022-10-10T19:56:44.850Z,7.40
2022-10-10T19:59:13.451Z,15.37
2022-10-10T20:01:41.962Z,7.03
2022-10-10T20:04:10.458Z,7.20
2022-10-10T20:06:41.406Z,7.03
2022-10-10T20:09:12.054Z,7.80
2022-10-10T20:11:41.359Z,8.03
2022-10-10T20:14:10.290Z,7.13
2022-10-10T20:16:39.236Z,10.93
2022-10-10T20:19:07.724Z,12.00
2022-10-10T20:21:36.538Z,9.93
2022-10-10T20:24:07.378Z,20.70
2022-10-10T20:26:38.373Z,20.53
2022-10-10T20:29:07.407Z,9.23
2022-10-10T20:31:38.058Z,16.40
2022-10-10T20:34:08.073Z,10.27
2022-10-10T20:36:36.746Z,9.40
2022-10-10T20:39:08.221Z,15.20
2022-10-10T20:41:39.505Z,15.47
2022-10-10T20:44:09.783Z,10.37
2022-10-10T20:46:39.813Z,13.10
2022-10-10T20:49:14.439Z,13.70
2022-10-10T20:51:48.565Z,14.13
2022-10-10T20:54:18.588Z,12.30
2022-10-10T20:56:50.002Z,10.93
2022-10-10T20:59:18.603Z,15.47
2022-10-10T21:01:47.214Z,8.00
2022-10-10T21:04:15.748Z,10.97
2022-10-10T21:06:44.440Z,10.43
2022-10-10T21:09:15.449Z,14.60
2022-10-10T21:11:46.445Z,10.27
2022-10-10T21:14:19.250Z,12.57
2022-10-10T21:16:48.582Z,15.30
2022-10-10T21:19:17.044Z,10.87
2022-10-10T21:21:45.632Z,13.50
2022-10-10T21:24:15.179Z,9.97
2022-10-10T21:26:45.678Z,13.13
2022-10-10T21:29:14.274Z,11.57
2022-10-10T21:31:44.431Z,16.73
2022-10-10T21:34:17.172Z,11.47
2022-10-10T21:36:45.715Z,11.57
2022-10-10T21:39:14.936Z,12.43
2022-10-10T21:41:43.459Z,13.43
2022-10-10T21:44:12.259Z,10.97
2022-10-10T21:46:40.859Z,12.30
2022-10-10T21:49:13.328Z,12.67
2022-10-10T21:51:43.756Z,10.70
2022-10-10T21:54:12.894Z,11.37
2022-10-10T21:56:42.182Z,14.53
2022-10-10T21:59:11.870Z,11.87
2022-10-10T22:01:40.570Z,13.33
2022-10-10T22:04:11.427Z,15.23
2022-10-10T22:06:40.126Z,11.60
2022-10-10T22:09:08.600Z,10.37
2022-10-10T22:11:37.072Z,6.43
2022-10-10T22:14:06.106Z,8.10
2022-10-10T22:16:35.173Z,13.13
2022-10-10T22:19:04.562Z,10.00
2022-10-10T22:21:35.249Z,7.93
2022-10-10T22:24:07.108Z,7.90
2022-10-10T22:26:36.565Z,8.43
2022-10-10T22:29:05.899Z,12.80
2022-10-10T22:31:37.961Z,9.77
2022-10-10T22:34:07.482Z,8.60
2022-10-10T22:36:37.598Z,11.00
2022-10-10T22:39:07.510Z,9.57
2022-10-10T22:41:36.399Z,10.70
2022-10-10T22:44:05.200Z,14.37
2022-10-10T22:46:34.192Z,11.50
2022-10-10T22:49:02.680Z,14.80
2022-10-10T22:51:31.395Z,15.33
2022-10-10T22:54:01.391Z,10.67
2022-10-10T22:56:29.989Z,10.00
2022-10-10T22:58:58.579Z,9.20
2022-10-10T23:01:28.761Z,10.87
2022-10-10T23:04:00.563Z,18.03
2022-10-10T23:06:29.358Z,15.13
2022-10-10T23:08:58.488Z,11.77
2022-10-10T23:11:28.575Z,16.67
2022-10-10T23:13:57.067Z,14.80
2022-10-10T23:16:25.774Z,13.67
2022-10-10T23:18:54.346Z,11.30
2022-10-10T23:21:23.206Z,16.53
2022-10-10T23:23:52.039Z,17.30
2022-10-10T23:26:20.742Z,8.17
2022-10-10T23:28:52.834Z,13.03
2022-10-10T23:31:21.705Z,11.60
2022-10-10T23:33:50.334Z,11.83
2022-10-10T23:36:19.068Z,14.17
2022-10-10T23:38:49.106Z,10.37
2022-10-10T23:41:18.003Z,16.87
2022-10-10T23:43:47.551Z,19.47
2022-10-10T23:46:17.613Z,8.57
2022-10-10T23:48:46.099Z,12.53
2022-10-10T23:51:15.098Z,10.07
2022-10-10T23:53:43.598Z,7.33
2022-10-10T23:56:13.736Z,10.40
2022-10-10T23:58:42.190Z,12.93
